Time;durP1;ratioP1;P1;durP2;ratioP2;P2;SDS_P1;SDS_P2;PMS_P1;PMS_P2;Temp;Humidity;BMP_temperature;BMP_pressure;BME280_temperature;BME280_humidity;BME280_pressure;Samples;Min_cycle;Max_cycle;Signal;HPM_P1;HPM_P2
2021/09/05 00:00:55;;;;;;;1.50;0.80;;;;;;;10.96;51.46;101493.28;5025638;28;20104;-70
2021/09/05 00:03:21;;;;;;;2.55;1.00;;;;;;;10.98;51.53;101503.69;5025396;28;20029;-70
2021/09/05 00:05:46;;;;;;;1.33;0.70;;;;;;;10.98;51.58;101506.28;5025622;28;20033;-69
2021/09/05 00:08:11;;;;;;;3.20;1.17;;;;;;;10.90;51.72;101501.03;5025646;28;20049;-69
2021/09/05 00:10:37;;;;;;;1.23;0.77;;;;;;;10.78;51.81;101494.88;5025642;28;20029;-69
2021/09/05 00:13:02;;;;;;;2.85;1.08;;;;;;;10.69;51.88;101504.34;5025461;28;20465;-70
2021/09/05 00:15:27;;;;;;;1.48;0.93;;;;;;;10.70;51.55;101498.28;5025564;28;20026;-70
2021/09/05 00:17:53;;;;;;;2.15;0.85;;;;;;;10.62;51.01;101480.88;5025373;28;20028;-70
2021/09/05 00:20:18;;;;;;;2.33;1.00;;;;;;;10.74;50.92;101494.84;5025079;28;20029;-70
2021/09/05 00:22:45;;;;;;;2.38;1.08;;;;;;;10.81;49.88;101491.44;5025459;28;20340;-70
2021/09/05 00:25:11;;;;;;;1.67;0.80;;;;;;;10.84;49.55;101493.19;5025515;28;20094;-70
2021/09/05 00:27:36;;;;;;;1.52;0.80;;;;;;;10.83;49.33;101496.66;5025458;28;20029;-70
2021/09/05 00:30:02;;;;;;;1.45;0.80;;;;;;;10.88;49.30;101501.00;5025075;28;20030;-69
2021/09/05 00:32:27;;;;;;;1.40;0.80;;;;;;;10.90;49.58;101508.81;5025295;28;20028;-69
2021/09/05 00:34:53;;;;;;;3.72;1.23;;;;;;;10.88;49.58;101505.34;5024863;28;20390;-69
2021/09/05 00:37:18;;;;;;;1.70;0.82;;;;;;;10.85;49.52;101503.59;5024982;28;20053;-69
2021/09/05 00:39:43;;;;;;;2.53;1.10;;;;;;;10.82;49.90;101511.34;5023623;28;20116;-69
2021/09/05 00:42:09;;;;;;;1.23;0.65;;;;;;;10.84;50.16;101500.97;5024034;28;20025;-68
2021/09/05 00:44:34;;;;;;;1.73;0.93;;;;;;;10.84;50.06;101503.56;5025368;28;20121;-69
2021/09/05 00:46:59;;;;;;;3.05;1.02;;;;;;;11.01;49.63;101511.50;5025421;28;20374;-69
2021/09/05 00:49:25;;;;;;;2.45;1.00;;;;;;;10.90;49.93;101511.41;5024488;28;20020;-69
2021/09/05 00:51:52;;;;;;;1.23;0.73;;;;;;;10.91;49.89;101511.44;5024787;28;20022;-69
2021/09/05 00:54:20;;;;;;;2.60;0.70;;;;;;;10.99;49.55;101508.88;5024770;28;20047;-68
2021/09/05 00:56:45;;;;;;;4.03;1.10;;;;;;;10.95;49.83;101511.44;5024881;28;20323;-69
2021/09/05 00:59:16;;;;;;;0.90;0.60;;;;;;;10.93;49.92;101518.38;5023376;28;20050;-69
2021/09/05 01:01:42;;;;;;;1.30;0.68;;;;;;;10.95;49.96;101512.34;5024683;28;20105;-69
2021/09/05 01:04:07;;;;;;;1.30;0.80;;;;;;;10.91;50.06;101516.63;5024437;28;20022;-69
2021/09/05 01:06:34;;;;;;;1.38;0.85;;;;;;;10.85;50.09;101515.69;5024650;28;20025;-69
2021/09/05 01:09:01;;;;;;;1.48;1.00;;;;;;;10.86;50.32;101514.88;5024302;28;20032;-68
2021/09/05 01:11:26;;;;;;;2.45;1.33;;;;;;;10.85;50.45;101508.78;5024511;28;20018;-69
2021/09/05 01:13:52;;;;;;;1.08;0.70;;;;;;;10.82;50.87;101521.75;5024334;28;20456;-69
2021/09/05 01:16:29;;;;;;;2.17;1.00;;;;;;;10.81;50.88;101509.63;5023641;28;20037;-69
2021/09/05 01:19:01;;;;;;;2.10;0.80;;;;;;;10.71;51.19;101515.59;5023002;28;20045;-69
2021/09/05 01:21:26;;;;;;;2.22;1.00;;;;;;;10.84;51.01;101520.03;5022320;28;20034;-69
2021/09/05 01:23:53;;;;;;;2.63;0.85;;;;;;;10.75;51.36;101520.81;5024677;28;20382;-69
2021/09/05 01:26:19;;;;;;;2.22;1.02;;;;;;;10.73;51.48;101521.69;5024277;28;20044;-69
2021/09/05 01:28:45;;;;;;;1.60;0.90;;;;;;;10.74;51.64;101523.41;5023478;28;20052;-68
2021/09/05 01:31:11;;;;;;;3.17;1.13;;;;;;;10.66;51.71;101519.03;5022577;28;20022;-68
2021/09/05 01:33:36;;;;;;;1.20;0.70;;;;;;;10.74;51.82;101528.59;5023916;28;20025;-69
2021/09/05 01:36:02;;;;;;;4.07;0.95;;;;;;;10.69;51.91;101528.56;5023927;28;20026;-68
2021/09/05 01:38:27;;;;;;;2.20;1.05;;;;;;;10.73;51.70;101524.28;5024002;28;20105;-68
2021/09/05 01:40:52;;;;;;;1.73;0.90;;;;;;;10.72;51.95;101532.94;5023848;28;20196;-67
2021/09/05 01:43:18;;;;;;;2.35;0.73;;;;;;;10.74;51.86;101537.28;5023720;28;20037;-68
2021/09/05 01:45:43;;;;;;;1.40;0.88;;;;;;;10.69;52.04;101530.31;5023739;28;20549;-68
2021/09/05 01:48:08;;;;;;;2.25;0.73;;;;;;;10.72;51.95;101535.53;5023712;28;20026;-68
2021/09/05 01:50:34;;;;;;;1.15;0.60;;;;;;;10.68;52.03;101541.53;5023527;28;20061;-68
2021/09/05 01:52:59;;;;;;;2.17;0.85;;;;;;;10.66;52.21;101542.41;5023669;28;20045;-68
2021/09/05 01:55:25;;;;;;;1.38;0.80;;;;;;;10.61;52.19;101536.28;5023614;28;20029;-69
2021/09/05 01:57:50;;;;;;;1.50;0.70;;;;;;;10.72;52.01;101541.56;5023525;28;20033;-69
2021/09/05 02:00:15;;;;;;;1.25;0.60;;;;;;;10.64;52.37;101549.28;5022957;28;20097;-69
2021/09/05 02:02:41;;;;;;;2.33;1.05;;;;;;;10.74;52.24;101544.19;5022147;28;20029;-69
2021/09/05 02:05:07;;;;;;;1.63;1.10;;;;;;;10.69;52.58;101549.34;5023201;28;20446;-69
2021/09/05 02:07:32;;;;;;;1.80;1.13;;;;;;;10.66;52.42;101557.09;5023668;28;20029;-69
2021/09/05 02:09:57;;;;;;;1.45;0.80;;;;;;;10.66;52.30;101563.19;5023313;28;20060;-69
2021/09/05 02:12:23;;;;;;;1.63;0.88;;;;;;;10.72;52.13;101554.56;5023299;28;20022;-69
2021/09/05 02:14:48;;;;;;;3.10;0.90;;;;;;;10.72;51.91;101564.09;5023476;28;20021;-69
2021/09/05 02:17:14;;;;;;;1.15;0.80;;;;;;;10.63;51.60;101552.75;5023290;28;20036;-69
2021/09/05 02:19:39;;;;;;;1.38;0.75;;;;;;;10.73;51.35;101561.50;5023113;28;20025;-70
2021/09/05 02:22:05;;;;;;;1.10;0.70;;;;;;;10.80;50.97;101567.63;5023237;28;20437;-68
2021/09/05 02:24:31;;;;;;;1.77;0.82;;;;;;;10.80;51.22;101561.56;5023358;28;20026;-68
2021/09/05 02:26:56;;;;;;;1.33;0.85;;;;;;;10.75;51.33;101562.38;5023283;28;20033;-68
2021/09/05 02:29:22;;;;;;;2.53;0.90;;;;;;;10.69;51.65;101564.06;5023094;28;20119;-67
2021/09/05 02:31:47;;;;;;;1.42;0.80;;;;;;;10.62;51.64;101566.56;5023258;28;20028;-69
2021/09/05 02:34:12;;;;;;;1.60;0.80;;;;;;;10.54;51.45;101558.72;5023045;28;20030;-68
2021/09/05 02:36:38;;;;;;;1.70;0.88;;;;;;;10.52;51.69;101559.56;5023175;28;20050;-68
2021/09/05 02:39:04;;;;;;;1.45;0.80;;;;;;;10.48;51.82;101557.81;5023057;28;20033;-68
2021/09/05 02:41:29;;;;;;;1.42;0.70;;;;;;;10.47;51.96;101561.22;5025626;28;20022;-68
2021/09/05 02:43:54;;;;;;;2.42;0.90;;;;;;;10.35;52.10;101562.81;5027091;28;20034;-68
2021/09/05 02:46:20;;;;;;;1.27;0.90;;;;;;;10.36;52.17;101564.56;5026910;28;20025;-68
2021/09/05 02:48:45;;;;;;;1.65;0.65;;;;;;;10.33;52.30;101568.84;5026798;28;20033;-68
2021/09/05 02:51:10;;;;;;;4.78;0.80;;;;;;;10.29;52.12;101565.31;5026685;28;20033;-68
2021/09/05 02:53:36;;;;;;;2.15;0.70;;;;;;;10.28;52.00;101561.88;5026926;28;20042;-68
2021/09/05 02:56:01;;;;;;;2.70;0.90;;;;;;;10.27;52.14;101567.06;5026860;28;20105;-68
2021/09/05 02:58:27;;;;;;;1.80;1.10;;;;;;;10.25;52.33;101567.03;5026690;28;20030;-68
2021/09/05 03:00:52;;;;;;;1.58;0.73;;;;;;;10.17;52.43;101572.13;5026645;28;20054;-68
2021/09/05 03:03:18;;;;;;;1.65;0.90;;;;;;;10.10;52.44;101567.72;5026631;28;20048;-68
2021/09/05 03:05:43;;;;;;;1.17;0.82;;;;;;;10.13;52.43;101564.28;5026498;28;20026;-68
2021/09/05 03:08:08;;;;;;;2.53;0.85;;;;;;;10.12;52.25;101571.22;5026412;28;20053;-67
2021/09/05 03:10:33;;;;;;;1.67;0.90;;;;;;;10.11;52.56;101569.44;5026570;28;20018;-68
2021/09/05 03:12:59;;;;;;;2.42;1.02;;;;;;;10.09;52.60;101576.38;5026295;28;20034;-68
2021/09/05 03:15:24;;;;;;;1.35;0.70;;;;;;;10.07;52.51;101577.19;5026278;28;20033;-68
2021/09/05 03:17:49;;;;;;;2.40;0.70;;;;;;;10.03;52.63;101576.28;5026331;28;20061;-68
2021/09/05 03:20:15;;;;;;;1.63;1.00;;;;;;;9.97;52.64;101573.63;5025983;28;20030;-68
2021/09/05 03:22:40;;;;;;;1.40;0.68;;;;;;;9.96;52.71;101569.25;5026166;28;20022;-68
2021/09/05 03:25:06;;;;;;;1.38;0.77;;;;;;;10.02;52.54;101582.31;5026211;28;20394;-68
2021/09/05 03:27:32;;;;;;;1.65;0.80;;;;;;;9.98;52.65;101585.72;5025980;28;20026;-69
2021/09/05 03:29:57;;;;;;;2.42;0.98;;;;;;;9.90;52.77;101577.84;5026093;28;20028;-68
2021/09/05 03:32:22;;;;;;;1.33;0.70;;;;;;;9.92;52.60;101582.19;5026008;28;20117;-69
2021/09/05 03:34:48;;;;;;;1.75;0.70;;;;;;;9.94;52.56;101586.53;5025728;28;20032;-68
2021/09/05 03:37:13;;;;;;;1.10;0.75;;;;;;;9.93;52.58;101585.66;5025632;28;20068;-68
2021/09/05 03:39:38;;;;;;;1.17;0.90;;;;;;;9.97;52.56;101589.19;5025632;28;20036;-68
2021/09/05 03:42:04;;;;;;;2.13;1.05;;;;;;;9.99;52.64;101577.09;5025824;28;20026;-68
2021/09/05 03:44:30;;;;;;;2.83;0.90;;;;;;;9.92;52.46;101574.41;5025931;28;20246;-68
2021/09/05 03:46:55;;;;;;;1.00;0.77;;;;;;;9.93;52.82;101580.47;5026021;28;20021;-68
2021/09/05 03:49:21;;;;;;;2.17;0.90;;;;;;;9.90;53.06;101576.09;5025877;28;20029;-68
2021/09/05 03:51:46;;;;;;;2.75;0.90;;;;;;;9.87;53.28;101581.25;5025493;28;20456;-68
2021/09/05 03:54:12;;;;;;;1.40;0.75;;;;;;;9.91;52.89;101585.66;5025815;28;20018;-68
2021/09/05 03:56:37;;;;;;;2.50;0.82;;;;;;;9.90;52.71;101580.44;5024764;28;20091;-68
2021/09/05 03:59:03;;;;;;;1.38;0.80;;;;;;;9.87;53.29;101576.06;5025661;28;20528;-70
2021/09/05 04:01:30;;;;;;;1.42;0.75;;;;;;;9.89;53.23;101583.88;5025585;28;20022;-69
2021/09/05 04:03:55;;;;;;;0.77;0.55;;;;;;;9.86;53.25;101578.63;5025470;28;20026;-69
2021/09/05 04:06:21;;;;;;;2.83;0.80;;;;;;;9.86;53.59;101579.53;5025683;28;20037;-69
2021/09/05 04:08:49;;;;;;;1.45;0.70;;;;;;;9.85;53.54;101582.97;5025542;28;20233;-71
2021/09/05 04:11:15;;;;;;;1.63;0.70;;;;;;;9.84;53.38;101576.03;5025466;28;20085;-68
2021/09/05 04:13:40;;;;;;;1.15;0.63;;;;;;;9.82;53.34;101576.88;5025400;28;20026;-69
2021/09/05 04:16:06;;;;;;;1.27;0.70;;;;;;;9.89;53.44;101576.97;5025635;28;20053;-69
2021/09/05 04:18:31;;;;;;;1.25;0.77;;;;;;;9.90;53.57;101585.63;5025414;28;20018;-70
2021/09/05 04:20:57;;;;;;;1.85;0.65;;;;;;;9.85;53.75;101571.72;5024033;28;20026;-69
2021/09/05 04:23:22;;;;;;;1.67;0.82;;;;;;;9.86;53.90;101574.34;5025562;28;20106;-69
2021/09/05 04:25:48;;;;;;;1.50;0.90;;;;;;;9.85;54.06;101576.91;5025567;28;20525;-69
2021/09/05 04:28:13;;;;;;;3.55;1.00;;;;;;;9.83;54.32;101581.19;5025243;28;20021;-68
2021/09/05 04:30:41;;;;;;;1.33;0.80;;;;;;;9.83;54.35;101579.47;5025156;28;20270;-69
2021/09/05 04:33:06;;;;;;;1.25;0.80;;;;;;;9.76;54.35;101572.47;5025290;28;20018;-69
2021/09/05 04:35:32;;;;;;;1.52;0.75;;;;;;;9.78;54.41;101581.13;5024796;28;20041;-68
2021/09/05 04:37:57;;;;;;;2.80;0.70;;;;;;;9.78;54.42;101578.53;5024627;28;20046;-68
2021/09/05 04:40:26;;;;;;;1.85;1.02;;;;;;;9.86;54.29;101583.81;5024924;28;20026;-68
2021/09/05 04:42:51;;;;;;;1.27;0.70;;;;;;;10.00;53.84;101581.44;5025225;28;20030;-68
2021/09/05 04:45:16;;;;;;;1.67;0.80;;;;;;;10.19;53.44;101585.13;5025016;28;20029;-67
2021/09/05 04:47:42;;;;;;;1.42;0.80;;;;;;;10.37;52.81;101581.88;5024919;28;20022;-67
2021/09/05 04:50:08;;;;;;;1.60;0.93;;;;;;;10.50;52.49;101588.09;5024472;28;20470;-68
2021/09/05 04:52:33;;;;;;;1.88;0.80;;;;;;;10.70;52.16;101584.88;5024788;28;20049;-68
2021/09/05 04:54:58;;;;;;;4.05;0.98;;;;;;;10.98;51.43;101597.22;5024618;28;20038;-68
2021/09/05 04:57:24;;;;;;;1.48;0.75;;;;;;;11.17;50.69;101594.81;5024545;28;20030;-68
2021/09/05 04:59:49;;;;;;;1.25;0.77;;;;;;;11.13;50.74;101588.69;5024381;28;20026;-68
2021/09/05 05:02:15;;;;;;;1.42;0.63;;;;;;;11.07;50.27;101599.03;5024515;28;20029;-69
2021/09/05 05:04:40;;;;;;;2.65;0.75;;;;;;;11.07;50.08;101589.50;5023649;28;20101;-68
2021/09/05 05:07:06;;;;;;;1.58;0.77;;;;;;;11.12;49.75;101594.75;5024521;28;20037;-69
2021/09/05 05:09:31;;;;;;;1.35;0.77;;;;;;;11.16;49.59;101593.94;5024416;28;20056;-66
2021/09/05 05:11:57;;;;;;;1.83;1.05;;;;;;;11.11;49.75;101593.88;5024391;28;20052;-66
2021/09/05 05:14:22;;;;;;;2.00;0.90;;;;;;;11.08;49.79;101586.06;5024419;28;20484;-67
2021/09/05 05:16:47;;;;;;;0.90;0.60;;;;;;;11.09;49.75;101586.91;5023177;28;20533;-67
2021/09/05 05:19:13;;;;;;;3.55;0.90;;;;;;;11.07;49.76;101599.91;5023906;28;20022;-68
2021/09/05 05:21:38;;;;;;;1.63;1.08;;;;;;;11.05;49.96;101595.56;5023027;28;20045;-66
2021/09/05 05:24:04;;;;;;;1.75;1.10;;;;;;;11.05;49.89;101596.44;5024233;28;20037;-66
2021/09/05 05:26:29;;;;;;;1.73;0.90;;;;;;;11.08;49.90;101593.88;5024292;28;20029;-67
2021/09/05 05:28:55;;;;;;;0.93;0.60;;;;;;;11.10;49.53;101591.28;5024070;28;20049;-66
2021/09/05 05:31:21;;;;;;;1.27;0.85;;;;;;;11.20;49.11;101597.44;5024087;28;20029;-66
2021/09/05 05:33:46;;;;;;;1.25;0.57;;;;;;;11.27;49.11;101592.28;5023701;28;20728;-67
2021/09/05 05:36:12;;;;;;;5.45;0.80;;;;;;;11.38;48.56;101594.97;5023729;28;20029;-67
2021/09/05 05:38:41;;;;;;;0.93;0.60;;;;;;;11.44;48.46;101595.88;5023795;28;20048;-67
2021/09/05 05:41:07;;;;;;;2.55;1.30;;;;;;;11.49;48.49;101592.44;5023985;28;20453;-67
2021/09/05 05:43:33;;;;;;;1.40;0.80;;;;;;;11.62;47.95;101592.50;5023880;28;20481;-67
2021/09/05 05:45:58;;;;;;;1.42;0.80;;;;;;;11.74;47.70;101595.19;5024122;28;20053;-66
2021/09/05 05:48:24;;;;;;;2.53;0.82;;;;;;;11.74;47.97;101600.38;5023865;28;20040;-67
2021/09/05 05:50:51;;;;;;;2.28;1.00;;;;;;;11.83;47.91;101607.38;5022471;28;20532;-67
2021/09/05 05:53:17;;;;;;;3.70;1.05;;;;;;;11.87;47.66;101593.53;5023726;28;20100;-66
2021/09/05 05:55:42;;;;;;;1.63;0.82;;;;;;;11.96;47.23;101597.91;5023830;28;20109;-67
2021/09/05 05:58:08;;;;;;;2.00;0.80;;;;;;;12.03;46.94;101594.47;5022381;28;20052;-67
2021/09/05 06:00:35;;;;;;;1.20;0.70;;;;;;;12.09;46.80;101598.84;5023820;28;20022;-66
2021/09/05 06:03:01;;;;;;;2.50;0.80;;;;;;;12.16;46.46;101594.56;5023805;28;20029;-67
2021/09/05 06:05:26;;;;;;;1.58;0.95;;;;;;;12.19;46.83;101589.34;5023443;28;20033;-67
2021/09/05 06:07:51;;;;;;;1.30;0.70;;;;;;;12.19;46.74;101593.72;5023775;28;20068;-68
2021/09/05 06:10:17;;;;;;;1.40;0.70;;;;;;;12.18;46.75;101589.34;5023395;28;20037;-67
2021/09/05 06:12:42;;;;;;;1.35;0.73;;;;;;;12.22;46.82;101604.13;5023581;28;20026;-67
2021/09/05 06:15:08;;;;;;;2.97;0.90;;;;;;;12.26;46.63;101600.66;5023586;28;20418;-68
2021/09/05 06:17:33;;;;;;;1.33;0.85;;;;;;;12.31;46.70;101596.34;5023595;28;20402;-67
2021/09/05 06:19:59;;;;;;;1.58;0.70;;;;;;;12.32;46.89;101598.09;5023162;28;20478;-67
2021/09/05 06:22:24;;;;;;;1.23;0.90;;;;;;;12.43;46.07;101597.28;5023458;28;20025;-67
2021/09/05 06:24:49;;;;;;;2.50;1.13;;;;;;;12.50;46.42;101599.00;5022098;28;20030;-67
2021/09/05 06:27:15;;;;;;;1.10;0.73;;;;;;;12.51;46.82;101600.75;5023417;28;20026;-68
2021/09/05 06:29:40;;;;;;;2.33;0.93;;;;;;;12.59;46.86;101605.97;5023099;28;20026;-68
2021/09/05 06:32:06;;;;;;;1.17;0.80;;;;;;;12.55;47.23;101606.84;5023325;28;20730;-67
2021/09/05 06:34:32;;;;;;;1.85;1.02;;;;;;;12.64;47.18;101614.69;5022955;28;20022;-68
2021/09/05 06:36:57;;;;;;;1.10;0.70;;;;;;;12.70;47.13;101611.22;5023148;28;20061;-66
2021/09/05 06:39:22;;;;;;;1.50;0.80;;;;;;;12.66;47.37;101614.69;5023180;28;20026;-68
2021/09/05 06:41:48;;;;;;;1.85;0.80;;;;;;;12.61;47.96;101610.34;5023647;28;20026;-68
2021/09/05 06:44:13;;;;;;;2.55;0.90;;;;;;;12.57;47.83;101613.78;5023427;28;20025;-68
2021/09/05 06:46:38;;;;;;;1.70;0.90;;;;;;;12.61;48.00;101615.53;5023300;28;20034;-67
2021/09/05 06:49:07;;;;;;;2.42;0.90;;;;;;;12.60;48.18;101623.34;5022747;28;20200;-68
2021/09/05 06:51:38;;;;;;;2.35;0.80;;;;;;;12.80;48.17;101633.81;5023558;28;20022;-67
2021/09/05 06:54:03;;;;;;;2.03;1.00;;;;;;;13.12;47.87;101630.41;5023140;28;20065;-67
2021/09/05 06:56:28;;;;;;;2.05;0.70;;;;;;;13.40;47.51;101621.72;5023077;28;20030;-67
2021/09/05 06:58:54;;;;;;;1.83;1.00;;;;;;;13.57;47.10;101624.31;5023019;28;20068;-68
2021/09/05 07:01:19;;;;;;;2.75;1.00;;;;;;;13.71;47.17;101620.81;5021818;28;20077;-67
2021/09/05 07:03:44;;;;;;;1.52;1.10;;;;;;;14.13;47.18;101624.19;5021837;28;20022;-68
2021/09/05 07:06:10;;;;;;;2.08;0.90;;;;;;;14.54;46.06;101625.72;5023247;28;20037;-69
2021/09/05 07:08:36;;;;;;;1.05;0.80;;;;;;;14.83;45.68;101627.34;5023123;28;20018;-68
2021/09/05 07:11:02;;;;;;;2.65;1.10;;;;;;;15.13;45.26;101630.59;5022982;28;20025;-69
2021/09/05 07:13:30;;;;;;;1.60;0.80;;;;;;;15.51;44.25;101630.28;5023109;28;20040;-70
2021/09/05 07:15:58;;;;;;;1.75;0.60;;;;;;;15.71;42.89;101632.72;5023078;28;20511;-69
2021/09/05 07:18:23;;;;;;;1.17;0.82;;;;;;;15.61;42.96;101634.53;5021374;28;20088;-67
2021/09/05 07:20:49;;;;;;;2.83;1.10;;;;;;;15.55;43.47;101638.09;5022850;28;20030;-67
2021/09/05 07:23:17;;;;;;;0.98;0.68;;;;;;;15.52;43.91;101632.91;5022697;28;20049;-67
2021/09/05 07:25:43;;;;;;;1.65;1.00;;;;;;;15.63;43.93;101637.16;5022699;28;20251;-66
2021/09/05 07:28:11;;;;;;;1.52;1.17;;;;;;;15.96;43.37;101643.78;5025468;28;20025;-66
2021/09/05 07:30:36;;;;;;;2.22;1.25;;;;;;;16.16;42.83;101639.22;5026210;28;20014;-69
2021/09/05 07:33:01;;;;;;;1.63;1.00;;;;;;;16.24;43.06;101640.00;5026120;28;20036;-69
2021/09/05 07:35:29;;;;;;;1.98;0.90;;;;;;;16.25;43.22;101640.84;5025564;28;20049;-68
2021/09/05 07:37:55;;;;;;;1.88;1.00;;;;;;;16.29;43.22;101646.06;5025769;28;20057;-69
2021/09/05 07:40:21;;;;;;;3.13;1.02;;;;;;;16.50;43.25;101641.44;5026261;28;20033;-68
2021/09/05 07:42:47;;;;;;;1.90;1.20;;;;;;;16.81;43.44;101638.38;5025910;28;20405;-67
2021/09/05 07:45:12;;;;;;;1.38;0.93;;;;;;;17.01;43.28;101633.72;5025924;28;20030;-69
2021/09/05 07:47:38;;;;;;;1.98;1.08;;;;;;;17.54;43.01;101648.63;5026014;28;20029;-69
2021/09/05 07:50:05;;;;;;;2.15;1.10;;;;;;;18.05;41.76;101642.38;5025586;28;20018;-69
2021/09/05 07:52:30;;;;;;;1.80;1.05;;;;;;;18.23;41.60;101648.19;5025953;28;20022;-70
2021/09/05 07:54:56;;;;;;;2.55;1.30;;;;;;;18.61;41.17;101648.25;5025929;28;20033;-68
2021/09/05 07:57:21;;;;;;;2.42;1.10;;;;;;;18.74;41.31;101653.25;5024582;28;20026;-69
2021/09/05 07:59:47;;;;;;;2.22;1.20;;;;;;;19.09;41.34;101648.94;5025799;28;20025;-69
2021/09/05 08:02:13;;;;;;;2.90;1.00;;;;;;;19.61;40.38;101663.44;5025604;28;20236;-68
2021/09/05 08:04:38;;;;;;;1.73;1.00;;;;;;;20.05;40.34;101661.41;5025513;28;20022;-69
2021/09/05 08:07:04;;;;;;;1.65;1.00;;;;;;;20.57;39.67;101662.56;5024510;28;20045;-69
2021/09/05 08:09:32;;;;;;;2.38;1.00;;;;;;;21.05;38.72;101663.69;5025435;28;20053;-70
2021/09/05 08:12:00;;;;;;;1.65;1.02;;;;;;;21.52;38.56;101672.72;5025702;28;20022;-70
2021/09/05 08:14:25;;;;;;;2.80;1.00;;;;;;;22.19;37.87;101658.09;5025396;28;20037;-69
2021/09/05 08:16:50;;;;;;;3.63;1.30;;;;;;;23.02;36.72;101661.91;5025396;28;20394;-69
2021/09/05 08:19:16;;;;;;;2.22;1.00;;;;;;;23.76;35.67;101667.66;5025060;28;20338;-69
2021/09/05 08:21:45;;;;;;;2.33;1.10;;;;;;;24.28;33.83;101672.50;5025409;28;20091;-70
2021/09/05 08:24:10;;;;;;;4.13;1.30;;;;;;;24.71;33.68;101664.28;5023502;28;20092;-70
2021/09/05 08:26:35;;;;;;;2.70;1.10;;;;;;;25.16;32.74;101670.06;5025264;28;20022;-70
2021/09/05 08:29:01;;;;;;;2.22;1.13;;;;;;;25.47;32.13;101668.50;5024906;28;20026;-69
2021/09/05 08:31:26;;;;;;;2.85;1.35;;;;;;;25.56;31.89;101667.16;5025125;28;20117;-71
2021/09/05 08:33:52;;;;;;;2.20;1.00;;;;;;;25.97;31.54;101681.91;5024851;28;20109;-68
2021/09/05 08:36:17;;;;;;;2.03;1.10;;;;;;;26.12;31.25;101679.31;5024552;28;20394;-68
2021/09/05 08:38:43;;;;;;;2.00;0.90;;;;;;;26.44;30.82;101681.22;5024101;28;20030;-69
2021/09/05 08:41:08;;;;;;;3.17;0.98;;;;;;;26.42;30.56;101685.75;5024794;28;20037;-68
2021/09/05 08:43:35;;;;;;;1.90;0.90;;;;;;;26.23;31.35;101684.94;5023618;28;20041;-69
2021/09/05 08:46:01;;;;;;;2.90;1.30;;;;;;;26.48;30.63;101686.28;5025225;28;20082;-68
2021/09/05 08:48:26;;;;;;;2.42;1.38;;;;;;;26.71;30.52;101696.56;5024875;28;20026;-68
2021/09/05 08:50:54;;;;;;;1.98;1.13;;;;;;;27.17;29.95;101693.09;5024500;28;20041;-66
2021/09/05 08:53:22;;;;;;;1.75;0.85;;;;;;;27.77;29.28;101694.91;5024771;28;20018;-66
2021/09/05 08:55:48;;;;;;;1.50;1.00;;;;;;;27.98;29.18;101691.88;5024802;28;20165;-66
2021/09/05 08:58:14;;;;;;;2.75;1.20;;;;;;;28.10;28.96;101691.09;5024499;28;20022;-66
2021/09/05 09:00:42;;;;;;;2.70;1.30;;;;;;;28.21;29.03;101693.09;5024197;28;20092;-65
2021/09/05 09:03:07;;;;;;;2.97;1.10;;;;;;;27.87;29.97;101697.88;5024016;28;20026;-66
2021/09/05 09:05:37;;;;;;;2.95;1.05;;;;;;;27.46;30.31;101693.13;5024056;28;20049;-66
2021/09/05 09:08:23;;;;;;;4.72;1.20;;;;;;;27.24;31.11;101693.56;5024513;28;20021;-66
2021/09/05 09:10:50;;;;;;;2.83;1.40;;;;;;;27.21;31.29;101697.28;5024634;28;20029;-66
2021/09/05 09:13:39;;;;;;;3.78;1.20;;;;;;;27.37;31.48;101685.69;5024077;28;20036;-67
2021/09/05 09:16:09;;;;;;;2.90;0.98;;;;;;;28.05;31.01;101686.03;5024363;28;20182;-67
2021/09/05 09:18:37;;;;;;;2.42;1.30;;;;;;;28.26;30.70;101692.81;5024156;28;20021;-65
2021/09/05 09:21:06;;;;;;;3.95;1.20;;;;;;;28.70;30.05;101686.44;5023899;28;20092;-65
2021/09/05 09:23:35;;;;;;;2.15;1.23;;;;;;;28.92;29.61;101676.97;5022809;28;20097;-65
2021/09/05 09:26:06;;;;;;;3.42;1.20;;;;;;;29.20;29.52;101682.31;5024189;28;20017;-65
2021/09/05 09:28:36;;;;;;;5.05;1.42;;;;;;;29.38;29.06;101682.03;5024002;28;20449;-65
2021/09/05 09:31:13;;;;;;;2.58;1.35;;;;;;;29.59;28.45;101686.84;5023978;28;20120;-65
2021/09/05 09:33:39;;;;;;;6.03;1.42;;;;;;;29.80;28.30;101684.50;5023831;28;20121;-65
2021/09/05 09:36:05;;;;;;;1.90;0.98;;;;;;;29.62;27.90;101692.84;5023929;28;20485;-65
2021/09/05 09:38:31;;;;;;;2.30;1.10;;;;;;;29.45;28.31;101691.31;5022305;28;20076;-65
2021/09/05 09:41:14;;;;;;;4.05;1.35;;;;;;;29.16;28.51;101695.03;5023917;28;20025;-65
2021/09/05 09:44:00;;;;;;;2.13;1.00;;;;;;;28.72;29.64;101696.16;5023937;28;20069;-64
2021/09/05 09:46:29;;;;;;;1.92;1.10;;;;;;;28.74;28.99;101703.09;5023942;28;20034;-65
2021/09/05 09:48:57;;;;;;;2.35;1.33;;;;;;;28.20;30.62;101702.06;5023309;28;20474;-65
2021/09/05 09:51:23;;;;;;;2.17;1.10;;;;;;;27.53;31.70;101698.97;5023779;28;20030;-65
2021/09/05 09:53:50;;;;;;;2.75;1.05;;;;;;;27.19;32.58;101698.31;5023852;28;20465;-65
2021/09/05 09:56:16;;;;;;;3.60;1.48;;;;;;;27.44;32.35;101703.06;5023667;28;20025;-65
2021/09/05 09:58:45;;;;;;;2.13;1.00;;;;;;;27.46;31.75;101692.28;5023851;28;20021;-65
2021/09/05 10:01:14;;;;;;;2.08;1.20;;;;;;;27.18;32.29;101700.13;5023487;28;20022;-65
2021/09/05 10:03:41;;;;;;;2.95;1.15;;;;;;;26.60;33.05;101705.16;5022282;28;20359;-65
2021/09/05 10:06:07;;;;;;;2.90;1.30;;;;;;;26.67;33.22;101706.53;5023435;28;20063;-65
2021/09/05 10:08:34;;;;;;;2.53;1.10;;;;;;;26.87;33.34;101695.69;5023509;28;20045;-65
2021/09/05 10:10:59;;;;;;;4.25;1.20;;;;;;;26.81;33.16;101703.09;5023419;28;20032;-65
2021/09/05 10:13:37;;;;;;;2.25;1.10;;;;;;;27.27;32.65;101693.38;5023708;28;20486;-65
2021/09/05 10:16:03;;;;;;;2.22;1.10;;;;;;;26.98;32.58;101695.94;5023551;28;20096;-65
2021/09/05 10:18:29;;;;;;;2.80;1.20;;;;;;;26.18;33.34;101702.94;5023470;28;20021;-65
2021/09/05 10:20:57;;;;;;;2.75;1.13;;;;;;;25.86;34.54;101690.44;5023227;28;20056;-65
2021/09/05 10:23:31;;;;;;;3.67;1.52;;;;;;;26.09;34.47;101695.47;5023615;28;20033;-65
2021/09/05 10:26:03;;;;;;;2.60;1.38;;;;;;;25.71;34.43;101686.81;5023376;28;20022;-65
2021/09/05 10:28:40;;;;;;;3.13;1.50;;;;;;;24.95;35.55;101690.59;5022961;28;20234;-65
2021/09/05 10:31:38;;;;;;;3.47;1.42;;;;;;;24.09;36.99;101692.72;5023110;28;20110;-65
2021/09/05 10:34:03;;;;;;;5.22;1.40;;;;;;;24.26;38.14;101694.66;5021694;28;20034;-66
2021/09/05 10:36:41;;;;;;;2.50;1.33;;;;;;;24.61;36.79;101685.09;5023011;28;20029;-64
2021/09/05 10:39:08;;;;;;;2.53;1.25;;;;;;;24.68;35.86;101689.16;5021707;28;20026;-64
2021/09/05 10:41:46;;;;;;;3.33;1.40;;;;;;;24.78;34.79;101683.44;5023182;28;20291;-64
2021/09/05 10:44:12;;;;;;;1.80;1.23;;;;;;;24.59;34.59;101689.59;5023292;28;20026;-66
2021/09/05 10:46:44;;;;;;;6.60;1.73;;;;;;;25.03;34.30;101688.44;5023132;28;20115;-64
2021/09/05 10:49:10;;;;;;;3.97;1.48;;;;;;;25.37;33.87;101678.75;5023265;28;20249;-64
2021/09/05 10:51:39;;;;;;;1.73;1.08;;;;;;;25.17;34.50;101682.44;5023625;28;20025;-64
2021/09/05 10:54:10;;;;;;;3.15;1.27;;;;;;;25.47;35.10;101676.47;5025070;28;20032;-65
2021/09/05 12:18:25;;;;;;;4.22;1.60;;;;;;;19.54;41.22;101668.00;5044547;28;20125;-65
2021/09/05 12:20:58;;;;;;;2.70;1.42;;;;;;;19.46;41.32;101667.38;5045970;28;20393;-65
2021/09/05 12:23:33;;;;;;;4.60;1.88;;;;;;;19.37;42.12;101664.06;5045724;28;20045;-66
2021/09/05 12:26:01;;;;;;;3.78;1.63;;;;;;;19.34;42.50;101665.91;5045926;28;20455;-65
2021/09/05 12:28:29;;;;;;;4.70;1.42;;;;;;;19.40;42.04;101677.16;5045969;28;20017;-65
2021/09/05 12:30:58;;;;;;;3.88;1.63;;;;;;;19.40;41.36;101674.50;5045636;28;20022;-66
2021/09/05 12:33:27;;;;;;;4.40;1.65;;;;;;;19.39;42.11;101670.13;5046085;28;20116;-66
2021/09/05 12:36:04;;;;;;;5.15;2.00;;;;;;;19.40;42.13;101678.91;5047071;28;20056;-66
2021/09/05 12:38:31;;;;;;;4.13;1.85;;;;;;;19.46;42.05;101670.00;5046841;28;20060;-66
2021/09/05 12:41:06;;;;;;;3.17;1.85;;;;;;;19.40;42.25;101669.25;5046789;28;20025;-65
2021/09/05 12:43:41;;;;;;;3.22;1.85;;;;;;;19.36;42.02;101672.84;5046301;28;20113;-65
2021/09/05 12:46:07;;;;;;;2.38;1.27;;;;;;;19.24;41.83;101674.03;5046475;28;20026;-64